createdAt,value
2024-02-27T00:00:44.892Z,7.34
2024-02-27T00:01:44.763Z,7.27
2024-02-27T00:02:44.751Z,7.31
2024-02-27T00:03:44.764Z,7.28
2024-02-27T00:04:44.732Z,7.32
2024-02-27T00:05:44.804Z,7.27
2024-02-27T00:06:44.970Z,7.25
2024-02-27T00:07:44.837Z,7.28
2024-02-27T00:08:44.683Z,7.24
2024-02-27T00:09:44.699Z,7.37
2024-02-27T00:10:44.705Z,7.24
2024-02-27T00:11:44.727Z,7.24
2024-02-27T00:12:44.714Z,7.24
2024-02-27T00:13:44.632Z,7.25
2024-02-27T00:14:44.620Z,7.25
2024-02-27T00:15:44.736Z,7.27
2024-02-27T00:16:44.637Z,7.25
2024-02-27T00:17:44.653Z,7.35
2024-02-27T00:18:44.724Z,7.31
2024-02-27T00:19:44.651Z,7.24
2024-02-27T00:20:44.589Z,7.24
2024-02-27T00:21:44.689Z,7.24
2024-02-27T00:22:44.531Z,7.32
2024-02-27T00:23:44.647Z,7.30
2024-02-27T00:24:44.627Z,7.23
2024-02-27T00:25:44.498Z,7.24
2024-02-27T00:26:44.804Z,7.23
2024-02-27T00:27:44.555Z,7.20
2024-02-27T00:28:44.471Z,7.17
2024-02-27T00:29:44.472Z,7.24
2024-02-27T00:30:44.471Z,7.23
2024-02-27T00:31:44.440Z,7.21
2024-02-27T00:32:44.538Z,7.34
2024-02-27T00:33:44.595Z,7.30
2024-02-27T00:34:44.521Z,7.31
2024-02-27T00:35:44.502Z,7.24
2024-02-27T00:36:44.541Z,7.31
2024-02-27T00:37:44.410Z,7.23
2024-02-27T00:38:44.429Z,7.24
2024-02-27T00:39:44.508Z,7.20
2024-02-27T00:40:44.352Z,7.24
2024-02-27T00:41:44.334Z,7.25
2024-02-27T00:42:44.379Z,7.25
2024-02-27T00:43:44.300Z,7.24
2024-02-27T00:44:44.306Z,7.23
2024-02-27T00:45:44.391Z,7.17
2024-02-27T00:46:44.380Z,7.27
2024-02-27T00:47:44.288Z,7.17
2024-02-27T00:48:44.453Z,7.20
2024-02-27T00:49:44.327Z,7.15
2024-02-27T00:50:44.227Z,7.23
2024-02-27T00:51:44.285Z,7.15
2024-02-27T00:52:44.220Z,7.24
2024-02-27T00:53:44.206Z,7.16
2024-02-27T00:54:44.310Z,7.24
2024-02-27T00:55:44.382Z,7.24
2024-02-27T00:56:44.161Z,7.25
2024-02-27T00:57:44.201Z,7.24
2024-02-27T00:58:44.148Z,7.30
2024-02-27T00:59:44.141Z,7.39
2024-02-27T01:00:44.220Z,7.32
2024-02-27T01:01:44.114Z,7.40
2024-02-27T01:02:44.102Z,7.32
2024-02-27T01:03:44.196Z,7.35
2024-02-27T01:04:44.127Z,7.39
2024-02-27T01:05:44.204Z,7.42
2024-02-27T01:06:44.144Z,7.39
2024-02-27T01:07:44.043Z,7.39
2024-02-27T01:08:44.036Z,7.39
2024-02-27T01:09:44.085Z,7.42
2024-02-27T01:10:44.020Z,7.39
2024-02-27T01:11:44.154Z,7.34
2024-02-27T01:12:44.131Z,7.32
2024-02-27T01:13:43.980Z,7.35
2024-02-27T01:14:43.981Z,7.40
2024-02-27T01:15:44.012Z,7.42
2024-02-27T01:16:43.947Z,7.35
2024-02-27T01:17:43.958Z,7.25
2024-02-27T01:18:44.014Z,7.31
2024-02-27T01:19:44.030Z,7.24
2024-02-27T01:20:43.901Z,7.28
2024-02-27T01:21:44.055Z,7.31
2024-02-27T01:22:43.894Z,7.21
2024-02-27T01:23:43.903Z,7.34
2024-02-27T01:24:43.930Z,7.31
2024-02-27T01:25:43.865Z,7.27
2024-02-27T01:26:43.849Z,7.24
2024-02-27T01:27:43.972Z,7.27
2024-02-27T01:28:43.826Z,7.34
2024-02-27T01:29:43.828Z,7.28
2024-02-27T01:30:43.922Z,7.23
2024-02-27T01:31:43.781Z,7.32
2024-02-27T01:32:43.774Z,7.35
2024-02-27T01:33:43.952Z,7.35
2024-02-27T01:34:43.921Z,7.34
2024-02-27T01:35:43.753Z,7.34
2024-02-27T01:36:43.842Z,7.34
2024-02-27T01:37:43.723Z,7.31
2024-02-27T01:38:43.746Z,7.35
2024-02-27T01:39:43.783Z,7.28
2024-02-27T01:40:43.712Z,7.32
2024-02-27T01:41:43.674Z,7.30
2024-02-27T01:42:43.727Z,7.32
2024-02-27T01:43:43.777Z,7.32
2024-02-27T01:44:43.640Z,7.32
2024-02-27T01:45:43.692Z,7.31
2024-02-27T01:46:43.639Z,7.28
2024-02-27T01:47:43.654Z,7.34
2024-02-27T01:48:43.730Z,7.24
2024-02-27T01:49:43.612Z,7.21
2024-02-27T01:50:43.614Z,7.28
2024-02-27T01:51:43.611Z,7.30
2024-02-27T01:52:43.572Z,7.28
2024-02-27T01:53:43.552Z,7.23
2024-02-27T01:54:43.579Z,7.20
2024-02-27T01:55:43.527Z,7.20
2024-02-27T01:56:43.551Z,7.13
2024-02-27T01:57:43.577Z,7.23
2024-02-27T01:58:43.522Z,7.24
2024-02-27T01:59:43.593Z,7.35
2024-02-27T02:00:43.621Z,7.17
2024-02-27T02:01:43.477Z,7.23
2024-02-27T02:02:43.445Z,7.20
2024-02-27T02:03:43.606Z,7.21
2024-02-27T02:04:43.558Z,7.13
2024-02-27T02:05:43.483Z,7.21
2024-02-27T02:06:43.773Z,7.06
2024-02-27T02:07:43.393Z,7.16
2024-02-27T02:08:43.376Z,7.16
2024-02-27T02:09:43.411Z,7.20
2024-02-27T02:10:43.418Z,7.15
2024-02-27T02:11:43.351Z,7.20
2024-02-27T02:12:43.425Z,7.15
2024-02-27T02:13:43.329Z,7.12
2024-02-27T02:14:43.314Z,7.10
2024-02-27T02:15:43.532Z,7.15
2024-02-27T02:16:43.330Z,7.25
2024-02-27T02:17:43.343Z,7.17
2024-02-27T02:18:43.386Z,7.10
2024-02-27T02:19:43.297Z,7.21
2024-02-27T02:20:43.256Z,7.27
2024-02-27T02:21:43.310Z,7.23
2024-02-27T02:22:43.229Z,7.24
2024-02-27T02:23:43.253Z,7.25
2024-02-27T02:24:43.304Z,7.24
2024-02-27T02:25:43.209Z,7.20
2024-02-27T02:26:43.196Z,7.25
2024-02-27T02:27:43.199Z,7.25
2024-02-27T02:28:43.159Z,7.21
2024-02-27T02:29:43.167Z,7.25
2024-02-27T02:30:43.278Z,7.27
2024-02-27T02:31:43.240Z,7.25
2024-02-27T02:32:43.132Z,7.23
2024-02-27T02:33:43.285Z,7.24
2024-02-27T02:34:43.157Z,7.20
2024-02-27T02:35:43.083Z,7.28
2024-02-27T02:36:43.139Z,7.27
2024-02-27T02:37:43.071Z,7.23
2024-02-27T02:38:43.072Z,7.20
2024-02-27T02:39:43.080Z,7.28
2024-02-27T02:40:43.029Z,7.21
2024-02-27T02:41:43.014Z,7.24
2024-02-27T02:42:43.066Z,7.21
2024-02-27T02:43:43.131Z,7.24
2024-02-27T02:44:42.987Z,7.23
2024-02-27T02:45:43.046Z,7.21
2024-02-27T02:46:42.970Z,7.24
2024-02-27T02:47:43.099Z,7.23
2024-02-27T02:48:43.079Z,7.17
2024-02-27T02:49:43.139Z,7.28
2024-02-27T02:50:42.929Z,7.21
2024-02-27T02:51:42.957Z,7.21
2024-02-27T02:52:42.902Z,7.16
2024-02-27T02:53:42.943Z,7.13
2024-02-27T02:54:42.950Z,7.16
2024-02-27T02:55:42.871Z,7.24
2024-02-27T02:56:42.851Z,7.16
2024-02-27T02:57:42.929Z,7.16
2024-02-27T02:58:42.862Z,7.21
2024-02-27T02:59:42.857Z,7.20
2024-02-27T03:00:43.057Z,7.16
2024-02-27T03:01:42.825Z,7.27
2024-02-27T03:02:42.807Z,7.27
2024-02-27T03:03:43.001Z,7.17
2024-02-27T03:04:42.827Z,7.15
2024-02-27T03:05:42.774Z,7.10
2024-02-27T03:06:42.926Z,7.13
2024-02-27T03:07:42.757Z,7.16
2024-02-27T03:08:42.728Z,7.17
2024-02-27T03:09:42.766Z,7.09
2024-02-27T03:10:42.706Z,7.24
2024-02-27T03:11:42.691Z,7.21
2024-02-27T03:12:42.759Z,7.25
2024-02-27T03:13:42.671Z,7.21
2024-02-27T03:14:42.663Z,7.20
2024-02-27T03:15:42.692Z,7.23
2024-02-27T03:16:42.636Z,7.21
2024-02-27T03:17:42.673Z,7.15
2024-02-27T03:18:42.831Z,7.16
2024-02-27T03:19:42.846Z,7.17
2024-02-27T03:20:42.617Z,7.13
2024-02-27T03:21:42.609Z,7.12
2024-02-27T03:22:42.571Z,7.17
2024-02-27T03:23:42.564Z,7.20
2024-02-27T03:24:42.622Z,7.21
2024-02-27T03:25:42.564Z,7.24
2024-02-27T03:26:42.526Z,7.27
2024-02-27T03:27:42.679Z,7.25
2024-02-27T03:28:42.515Z,7.34
2024-02-27T03:29:42.516Z,7.24
2024-02-27T03:30:43.289Z,7.23
2024-02-27T03:31:42.470Z,7.25
2024-02-27T03:32:42.473Z,7.34
2024-02-27T03:33:42.651Z,7.28
2024-02-27T03:34:42.588Z,7.35
2024-02-27T03:35:42.540Z,7.34
2024-02-27T03:36:42.534Z,7.35
2024-02-27T03:37:42.421Z,7.34
2024-02-27T03:38:42.396Z,7.32
2024-02-27T03:39:42.423Z,7.39
2024-02-27T03:40:42.396Z,7.25
2024-02-27T03:41:42.366Z,7.28
2024-02-27T03:42:42.457Z,7.30
2024-02-27T03:43:42.353Z,7.15
2024-02-27T03:44:42.328Z,7.20
2024-02-27T03:45:42.405Z,7.16
2024-02-27T03:46:42.305Z,7.24
2024-02-27T03:47:42.342Z,7.24
2024-02-27T03:48:42.501Z,7.31
2024-02-27T03:49:42.425Z,7.25
2024-02-27T03:50:42.262Z,7.28
2024-02-27T03:51:42.407Z,7.23
2024-02-27T03:52:42.243Z,7.28
2024-02-27T03:53:42.261Z,7.28
2024-02-27T03:54:42.233Z,7.24
2024-02-27T03:55:42.208Z,7.12
2024-02-27T03:56:42.197Z,7.17
2024-02-27T03:57:42.235Z,7.20
2024-02-27T03:58:42.171Z,7.23
2024-02-27T03:59:42.186Z,7.15
2024-02-27T04:00:42.262Z,7.12
2024-02-27T04:01:42.221Z,7.06
2024-02-27T04:02:42.129Z,7.09
2024-02-27T04:03:42.207Z,7.10
2024-02-27T04:04:42.136Z,7.17
2024-02-27T04:05:42.157Z,7.17
2024-02-27T04:06:42.205Z,7.03
2024-02-27T04:07:42.238Z,6.98
2024-02-27T04:08:42.074Z,6.98
2024-02-27T04:09:42.169Z,7.07
2024-02-27T04:10:42.176Z,6.98
2024-02-27T04:11:42.069Z,7.05
2024-02-27T04:12:42.077Z,6.92
2024-02-27T04:13:42.010Z,6.92
2024-02-27T04:14:42.024Z,6.95
2024-02-27T04:15:42.071Z,6.88
2024-02-27T04:16:42.020Z,6.92
2024-02-27T04:17:41.977Z,6.87
2024-02-27T04:18:42.082Z,6.99
2024-02-27T04:19:42.037Z,6.94
2024-02-27T04:20:41.950Z,7.03
2024-02-27T04:21:41.944Z,7.15
2024-02-27T04:22:41.927Z,7.13
2024-02-27T04:23:42.035Z,7.09
2024-02-27T04:24:41.920Z,7.17
2024-02-27T04:25:41.882Z,7.03
2024-02-27T04:26:41.871Z,7.06
2024-02-27T04:27:41.869Z,7.07
2024-02-27T04:28:41.904Z,7.02
2024-02-27T04:29:41.884Z,7.03
2024-02-27T04:30:41.830Z,6.91
2024-02-27T04:31:41.829Z,6.89
2024-02-27T04:32:41.867Z,6.94
2024-02-27T04:33:42.009Z,6.98
2024-02-27T04:34:41.844Z,6.94
2024-02-27T04:35:41.801Z,7.05
2024-02-27T04:36:41.762Z,6.99
2024-02-27T04:37:41.750Z,7.10
2024-02-27T04:38:41.740Z,7.16
2024-02-27T04:39:41.876Z,7.03
2024-02-27T04:40:41.733Z,7.03
2024-02-27T04:41:41.735Z,7.05
2024-02-27T04:42:41.706Z,7.10
2024-02-27T04:43:41.686Z,7.10
2024-02-27T04:44:41.703Z,7.10
2024-02-27T04:45:41.701Z,7.17
2024-02-27T04:46:41.651Z,7.12
2024-02-27T04:47:41.721Z,7.06
2024-02-27T04:48:41.764Z,7.03
2024-02-27T04:49:41.700Z,7.03
2024-02-27T04:50:41.617Z,7.02
2024-02-27T04:51:41.629Z,7.06
2024-02-27T04:52:41.583Z,7.09
2024-02-27T04:53:41.602Z,7.05
2024-02-27T04:54:41.584Z,7.07
2024-02-27T04:55:41.680Z,7.05
2024-02-27T04:56:41.553Z,7.02
2024-02-27T04:57:41.552Z,6.99
2024-02-27T04:58:41.518Z,6.94
2024-02-27T04:59:41.530Z,6.99
2024-02-27T05:00:41.600Z,7.03
2024-02-27T05:01:41.487Z,6.99
2024-02-27T05:02:41.499Z,6.91
2024-02-27T05:03:41.544Z,6.97
2024-02-27T05:04:41.476Z,6.97
2024-02-27T05:05:41.462Z,6.98
2024-02-27T05:06:41.484Z,6.94
2024-02-27T05:07:41.466Z,7.02
2024-02-27T05:08:41.418Z,6.91
2024-02-27T05:09:41.399Z,6.92
2024-02-27T05:10:41.419Z,6.91
2024-02-27T05:11:41.504Z,6.85
2024-02-27T05:12:41.368Z,6.85
2024-02-27T05:13:41.377Z,6.87
2024-02-27T05:14:41.366Z,6.84
2024-02-27T05:15:41.398Z,6.84
2024-02-27T05:16:41.329Z,6.89
2024-02-27T05:17:41.390Z,6.99
2024-02-27T05:18:41.384Z,6.92
2024-02-27T05:19:41.363Z,6.81
2024-02-27T05:20:41.292Z,6.80
2024-02-27T05:21:41.313Z,6.85
2024-02-27T05:22:41.260Z,6.80
2024-02-27T05:23:41.270Z,6.87
2024-02-27T05:24:41.276Z,6.91
2024-02-27T05:25:41.244Z,6.87
2024-02-27T05:26:41.212Z,6.77
2024-02-27T05:27:41.359Z,6.88
2024-02-27T05:28:41.221Z,6.81
2024-02-27T05:29:41.208Z,6.92
2024-02-27T05:30:41.250Z,6.85
2024-02-27T05:31:41.162Z,6.91
2024-02-27T05:32:41.204Z,6.89
2024-02-27T05:33:41.295Z,6.81
2024-02-27T05:34:41.459Z,6.87
2024-02-27T05:35:41.174Z,6.88
2024-02-27T05:36:41.240Z,6.85
2024-02-27T05:37:41.099Z,6.84
2024-02-27T05:38:41.085Z,6.88
2024-02-27T05:39:41.117Z,6.80
2024-02-27T05:40:41.114Z,6.88
2024-02-27T05:41:41.094Z,6.85
2024-02-27T05:42:41.091Z,6.91
2024-02-27T05:43:41.150Z,6.77
2024-02-27T05:44:41.021Z,6.69
2024-02-27T05:45:41.029Z,6.76
2024-02-27T05:46:41.089Z,6.74
2024-02-27T05:47:41.080Z,6.73
2024-02-27T05:48:41.087Z,6.67
2024-02-27T05:49:41.006Z,6.62
2024-02-27T05:50:40.978Z,6.61
2024-02-27T05:51:41.095Z,6.54
2024-02-27T05:52:40.979Z,6.62
2024-02-27T05:53:40.942Z,6.58
2024-02-27T05:54:41.096Z,6.56
2024-02-27T05:55:40.914Z,6.54
2024-02-27T05:56:40.889Z,6.52
2024-02-27T05:57:40.935Z,6.55
2024-02-27T05:58:40.864Z,6.51
2024-02-27T05:59:40.990Z,6.46
2024-02-27T06:00:40.905Z,6.52
2024-02-27T06:01:40.900Z,6.56
2024-02-27T06:02:40.823Z,6.59
2024-02-27T06:03:40.859Z,6.55
2024-02-27T06:04:40.896Z,6.52
2024-02-27T06:05:40.849Z,6.52
2024-02-27T06:06:40.909Z,6.43
2024-02-27T06:07:40.821Z,6.56
2024-02-27T06:08:40.828Z,6.51
2024-02-27T06:09:40.847Z,6.59
2024-02-27T06:10:40.800Z,6.59
2024-02-27T06:11:40.784Z,6.51
2024-02-27T06:12:40.779Z,6.36
2024-02-27T06:13:40.697Z,6.30
2024-02-27T06:14:40.691Z,6.36
2024-02-27T06:15:40.869Z,6.43
2024-02-27T06:16:40.678Z,6.33
2024-02-27T06:17:40.695Z,6.36
2024-02-27T06:18:40.690Z,6.40
2024-02-27T06:19:40.673Z,6.34
2024-02-27T06:20:40.630Z,6.36
2024-02-27T06:21:40.717Z,6.38
2024-02-27T06:22:40.604Z,6.36
2024-02-27T06:23:40.609Z,6.33
2024-02-27T06:24:40.735Z,6.30
2024-02-27T06:25:42.610Z,6.25
2024-02-27T06:26:40.578Z,6.27
2024-02-27T06:27:40.760Z,6.17
2024-02-27T06:28:40.561Z,6.19
2024-02-27T06:29:40.554Z,6.15
2024-02-27T06:30:40.581Z,6.15
2024-02-27T06:31:40.639Z,6.25
2024-02-27T06:32:40.524Z,6.21
2024-02-27T06:33:40.697Z,6.17
2024-02-27T06:34:41.025Z,6.27
2024-02-27T06:35:40.525Z,6.27
2024-02-27T06:36:40.518Z,6.21
2024-02-27T06:37:40.444Z,6.14
2024-02-27T06:38:40.428Z,6.22
2024-02-27T06:39:40.456Z,6.28
2024-02-27T06:40:40.432Z,6.25
2024-02-27T06:41:40.426Z,6.28
2024-02-27T06:42:40.457Z,6.33
2024-02-27T06:43:40.388Z,6.31
2024-02-27T06:44:40.405Z,6.34
2024-02-27T06:45:40.362Z,6.27
2024-02-27T06:46:40.352Z,6.25
2024-02-27T06:47:40.565Z,6.27
2024-02-27T06:48:40.478Z,6.33
2024-02-27T06:49:40.361Z,6.25
2024-02-27T06:50:40.305Z,6.21
2024-02-27T06:51:40.344Z,6.17
2024-02-27T06:52:40.277Z,6.04
2024-02-27T06:53:40.351Z,6.14
2024-02-27T06:54:40.370Z,6.04
2024-02-27T06:55:40.252Z,6.09
2024-02-27T06:56:40.235Z,6.03
2024-02-27T06:57:40.260Z,6.09
2024-02-27T06:58:40.210Z,6.06
2024-02-27T06:59:40.245Z,6.21
2024-02-27T07:00:40.336Z,6.27
2024-02-27T07:01:40.183Z,6.28
2024-02-27T07:02:40.188Z,6.22
2024-02-27T07:03:40.409Z,6.28
2024-02-27T07:04:40.275Z,6.18
2024-02-27T07:05:47.238Z,6.22
2024-02-27T07:06:41.257Z,6.21
2024-02-27T07:07:40.116Z,6.27
2024-02-27T07:08:41.479Z,6.18
2024-02-27T07:09:40.118Z,6.34
2024-02-27T07:10:40.101Z,6.22
2024-02-27T07:11:40.097Z,6.27
2024-02-27T07:12:40.088Z,6.27
2024-02-27T07:13:40.061Z,6.22
2024-02-27T07:14:40.050Z,6.21
2024-02-27T07:15:40.128Z,6.19
2024-02-27T07:16:40.052Z,6.18
2024-02-27T07:17:40.114Z,6.18
2024-02-27T07:18:40.053Z,6.21
2024-02-27T07:19:40.140Z,6.06
2024-02-27T07:20:39.999Z,6.15
2024-02-27T07:21:40.032Z,6.18
2024-02-27T07:22:39.957Z,6.01
2024-02-27T07:23:39.949Z,6.09
2024-02-27T07:24:40.244Z,6.19
2024-02-27T07:25:39.925Z,6.19
2024-02-27T07:26:39.906Z,6.30
2024-02-27T07:27:40.046Z,6.30
2024-02-27T07:28:39.894Z,6.41
2024-02-27T07:29:39.898Z,6.46
2024-02-27T07:30:39.951Z,6.51
2024-02-27T07:31:39.964Z,6.58
2024-02-27T07:32:39.912Z,6.59
2024-02-27T07:33:40.003Z,6.66
2024-02-27T07:34:39.848Z,6.70
2024-02-27T07:35:39.943Z,6.69
2024-02-27T07:36:39.849Z,6.70
2024-02-27T07:37:43.343Z,6.77
2024-02-27T07:39:00.992Z,6.88
2024-02-27T07:39:39.920Z,6.88
2024-02-27T07:40:39.762Z,6.98
2024-02-27T07:41:39.783Z,6.87
2024-02-27T07:42:39.868Z,7.06
2024-02-27T07:43:39.901Z,7.15
2024-02-27T07:44:40.743Z,7.25
2024-02-27T07:45:39.810Z,7.24
2024-02-27T07:46:40.659Z,7.28
2024-02-27T07:47:39.755Z,7.32
2024-02-27T07:48:39.751Z,7.46
2024-02-27T07:49:39.674Z,7.71
2024-02-27T07:50:39.648Z,7.85
2024-02-27T07:51:39.785Z,7.90
2024-02-27T07:52:39.687Z,8.08
2024-02-27T07:53:39.613Z,8.15
2024-02-27T07:54:39.694Z,8.12
2024-02-27T07:55:39.598Z,8.08
2024-02-27T07:56:39.639Z,8.10
2024-02-27T07:57:39.652Z,8.10
2024-02-27T07:58:39.577Z,8.22
2024-02-27T07:59:39.573Z,8.15
2024-02-27T08:00:39.669Z,8.11
2024-02-27T08:01:39.603Z,8.10
2024-02-27T08:02:39.541Z,8.28
2024-02-27T08:03:39.629Z,8.20
2024-02-27T08:04:39.573Z,8.28
2024-02-27T08:05:39.559Z,8.37
2024-02-27T08:06:42.884Z,8.48
2024-02-27T08:07:39.573Z,8.48
2024-02-27T08:08:40.218Z,8.48
2024-02-27T08:09:39.623Z,8.53
2024-02-27T08:10:39.433Z,8.61
2024-02-27T08:11:39.525Z,8.76
2024-02-27T08:12:39.488Z,8.79
2024-02-27T08:13:39.436Z,8.80
2024-02-27T08:14:39.387Z,8.76
2024-02-27T08:15:39.497Z,8.76
2024-02-27T08:16:39.377Z,8.59
2024-02-27T08:17:39.384Z,8.48
2024-02-27T08:18:39.450Z,8.43
2024-02-27T08:19:39.483Z,8.47
2024-02-27T08:20:39.333Z,8.50
2024-02-27T08:21:39.464Z,8.55
2024-02-27T08:22:39.313Z,8.59
2024-02-27T08:23:39.446Z,8.66
2024-02-27T08:24:39.413Z,8.73
2024-02-27T08:25:39.263Z,8.76
2024-02-27T08:26:39.264Z,8.73
2024-02-27T08:27:39.310Z,8.86
2024-02-27T08:28:39.247Z,8.79
2024-02-27T08:29:39.233Z,8.94
2024-02-27T08:30:39.232Z,8.77
2024-02-27T08:31:39.263Z,8.83
2024-02-27T08:32:40.235Z,8.81
2024-02-27T08:33:39.391Z,8.76
2024-02-27T08:34:39.297Z,8.94
2024-02-27T08:35:39.204Z,8.89
2024-02-27T08:36:39.275Z,9.17
2024-02-27T08:37:39.148Z,9.23
2024-02-27T08:38:39.129Z,9.20
2024-02-27T08:39:39.445Z,9.26
2024-02-27T08:40:39.111Z,9.33
2024-02-27T08:41:39.122Z,9.31
2024-02-27T08:42:39.254Z,9.29
2024-02-27T08:43:39.653Z,9.40
2024-02-27T08:44:39.054Z,9.39
2024-02-27T08:45:39.290Z,9.39
2024-02-27T08:46:39.054Z,9.39
2024-02-27T08:47:39.061Z,9.35
2024-02-27T08:48:39.244Z,9.33
2024-02-27T08:49:39.121Z,9.24
2024-02-27T08:50:39.015Z,9.13
2024-02-27T08:51:39.097Z,8.94
2024-02-27T08:52:38.983Z,8.95
2024-02-27T08:53:38.980Z,8.91
2024-02-27T08:54:39.007Z,9.04
2024-02-27T08:55:39.105Z,8.83
2024-02-27T08:56:38.961Z,8.89
2024-02-27T08:57:39.068Z,8.86
2024-02-27T08:58:38.909Z,8.94
2024-02-27T08:59:38.926Z,8.79
2024-02-27T09:00:38.980Z,8.87
2024-02-27T09:01:38.911Z,8.91
2024-02-27T09:02:38.919Z,9.01
2024-02-27T09:03:38.968Z,9.10
2024-02-27T09:04:38.904Z,9.17
2024-02-27T09:05:38.851Z,9.29
2024-02-27T09:06:38.883Z,9.28
2024-02-27T09:07:38.884Z,9.29
2024-02-27T09:08:38.848Z,9.40
2024-02-27T09:09:38.861Z,9.47
2024-02-27T09:10:38.791Z,9.54
2024-02-27T09:11:38.951Z,9.56
2024-02-27T09:12:38.854Z,9.48
2024-02-27T09:13:38.759Z,9.40
2024-02-27T09:14:38.823Z,9.26
2024-02-27T09:15:38.770Z,9.32
2024-02-27T09:16:38.742Z,9.29
2024-02-27T09:17:38.747Z,9.21
2024-02-27T09:18:38.786Z,9.05
2024-02-27T09:19:38.937Z,8.92
2024-02-27T09:20:38.701Z,8.98
2024-02-27T09:21:38.898Z,9.11
2024-02-27T09:22:38.650Z,9.64
2024-02-27T09:23:38.658Z,9.86
2024-02-27T09:24:38.732Z,9.87
2024-02-27T09:25:38.618Z,9.69
2024-02-27T09:26:38.612Z,9.64
2024-02-27T09:27:39.185Z,9.75
2024-02-27T09:28:38.591Z,9.83
2024-02-27T09:29:39.137Z,9.79
2024-02-27T09:30:38.612Z,9.79
2024-02-27T09:31:38.578Z,9.69
2024-02-27T09:32:38.751Z,9.72
2024-02-27T09:33:38.779Z,9.84
2024-02-27T09:34:38.566Z,10.01
2024-02-27T09:35:38.511Z,10.09
2024-02-27T09:36:38.550Z,10.29
2024-02-27T09:37:38.498Z,10.47
2024-02-27T09:38:38.479Z,10.61
2024-02-27T09:39:47.723Z,10.70
2024-02-27T09:40:39.452Z,10.71
2024-02-27T09:41:38.464Z,10.88
2024-02-27T09:42:38.465Z,10.94
2024-02-27T09:43:38.548Z,10.88
2024-02-27T09:44:38.421Z,11.07
2024-02-27T09:45:38.434Z,11.03
2024-02-27T09:46:38.407Z,11.07
2024-02-27T09:47:38.412Z,10.86
2024-02-27T09:48:38.598Z,10.97
2024-02-27T09:49:43.923Z,11.03
2024-02-27T09:50:39.341Z,10.96
2024-02-27T09:51:38.390Z,10.99
2024-02-27T09:52:38.357Z,11.06
2024-02-27T09:53:38.302Z,11.03
2024-02-27T09:54:38.435Z,11.14
2024-02-27T09:55:38.279Z,11.21
2024-02-27T09:56:38.273Z,11.32
2024-02-27T09:57:38.314Z,11.33
2024-02-27T09:58:38.281Z,11.06
2024-02-27T09:59:38.351Z,11.07
2024-02-27T10:00:38.423Z,11.17
2024-02-27T10:01:38.320Z,11.09
2024-02-27T10:02:38.274Z,11.24
2024-02-27T10:03:38.275Z,11.36
2024-02-27T10:04:38.235Z,11.44
2024-02-27T10:05:38.227Z,11.52
2024-02-27T10:06:38.224Z,11.60
2024-02-27T10:07:38.182Z,11.52
2024-02-27T10:08:38.174Z,11.57
2024-02-27T10:09:38.226Z,11.58
2024-02-27T10:10:38.180Z,11.69
2024-02-27T10:11:38.113Z,11.51
2024-02-27T10:12:38.275Z,11.49
2024-02-27T10:13:38.098Z,11.43
2024-02-27T10:14:38.161Z,11.32
2024-02-27T10:15:38.172Z,11.21
2024-02-27T10:16:38.082Z,11.21
2024-02-27T10:17:38.078Z,11.11
2024-02-27T10:18:38.321Z,11.17
2024-02-27T10:19:38.326Z,11.03
2024-02-27T10:20:38.133Z,11.15
2024-02-27T10:21:38.130Z,11.37
2024-02-27T10:22:38.044Z,11.54
2024-02-27T10:23:37.982Z,11.57
2024-02-27T10:24:38.084Z,11.73
2024-02-27T10:25:37.955Z,11.85
2024-02-27T10:26:37.954Z,12.05
2024-02-27T10:27:38.008Z,12.01
2024-02-27T10:28:37.993Z,11.95
2024-02-27T10:29:37.912Z,11.98
2024-02-27T10:30:37.957Z,12.09
2024-02-27T10:31:37.900Z,11.62
2024-02-27T10:32:38.010Z,11.51
2024-02-27T10:33:37.985Z,11.54
2024-02-27T10:34:38.137Z,11.54
2024-02-27T10:35:38.095Z,11.78
2024-02-27T10:36:38.887Z,11.64
2024-02-27T10:37:37.817Z,11.40
2024-02-27T10:38:37.845Z,11.19
2024-02-27T10:39:37.897Z,11.21
2024-02-27T10:40:37.835Z,11.18
2024-02-27T10:41:37.782Z,10.91
2024-02-27T10:42:37.840Z,10.89
2024-02-27T10:43:37.773Z,11.04
2024-02-27T10:44:37.791Z,11.03
2024-02-27T10:45:37.768Z,11.09
2024-02-27T10:46:37.738Z,11.09
2024-02-27T10:47:37.768Z,11.09
2024-02-27T10:48:44.057Z,11.09
2024-02-27T10:49:38.765Z,11.18
2024-02-27T10:50:37.746Z,11.39
2024-02-27T10:51:37.922Z,11.54
2024-02-27T10:52:37.693Z,11.64
2024-02-27T10:53:37.647Z,11.62
2024-02-27T10:54:37.701Z,11.61
2024-02-27T10:55:39.657Z,11.64
2024-02-27T10:56:37.626Z,11.27
2024-02-27T10:57:38.155Z,11.15
2024-02-27T10:58:37.684Z,10.81
2024-02-27T10:59:37.584Z,10.94
2024-02-27T11:00:37.671Z,10.97
2024-02-27T11:01:37.670Z,10.86
2024-02-27T11:02:37.552Z,11.00
2024-02-27T11:03:37.590Z,10.97
2024-02-27T11:04:37.810Z,11.07
2024-02-27T11:05:37.623Z,11.25
2024-02-27T11:06:37.605Z,11.47
2024-02-27T11:07:37.574Z,11.44
2024-02-27T11:08:38.148Z,11.19
2024-02-27T11:09:37.523Z,11.04
2024-02-27T11:10:37.490Z,10.99
2024-02-27T11:11:37.458Z,10.86
2024-02-27T11:12:37.501Z,10.91
2024-02-27T11:13:37.441Z,10.76
2024-02-27T11:14:39.240Z,10.61
2024-02-27T11:15:37.497Z,10.25
2024-02-27T11:16:37.436Z,10.25
2024-02-27T11:17:37.426Z,10.23
2024-02-27T11:18:37.504Z,10.32
2024-02-27T11:19:37.467Z,10.67
2024-02-27T11:20:37.933Z,10.70
2024-02-27T11:21:37.380Z,11.00
2024-02-27T11:22:37.374Z,11.11
2024-02-27T11:23:37.332Z,11.39
2024-02-27T11:24:37.336Z,11.04
2024-02-27T11:25:37.307Z,11.11
2024-02-27T11:26:38.649Z,11.07
2024-02-27T11:27:37.349Z,11.15
2024-02-27T11:28:37.279Z,11.09
2024-02-27T11:29:37.253Z,11.15
2024-02-27T11:30:37.358Z,11.19
2024-02-27T11:31:37.236Z,11.17
2024-02-27T11:32:39.079Z,11.11
2024-02-27T11:33:37.336Z,11.15
2024-02-27T11:34:37.558Z,11.15
2024-02-27T11:35:37.199Z,11.09
2024-02-27T11:36:37.231Z,10.91
2024-02-27T11:37:37.181Z,10.99
2024-02-27T11:38:39.108Z,11.02
2024-02-27T11:39:37.284Z,11.09
2024-02-27T11:40:37.202Z,11.09
2024-02-27T11:41:37.128Z,11.07
2024-02-27T11:42:37.343Z,11.15
2024-02-27T11:43:37.123Z,11.07
2024-02-27T11:44:38.718Z,11.00
2024-02-27T11:45:37.161Z,10.97
2024-02-27T11:46:37.325Z,10.84
2024-02-27T11:47:37.097Z,10.89
2024-02-27T11:48:37.175Z,10.59
2024-02-27T11:49:37.321Z,10.61
2024-02-27T11:50:37.337Z,10.67
2024-02-27T11:51:37.130Z,10.66
2024-02-27T11:52:37.019Z,10.56
2024-02-27T11:53:37.014Z,10.52
2024-02-27T11:54:37.077Z,10.48
2024-02-27T11:55:36.987Z,10.59
2024-02-27T11:56:36.974Z,10.63
2024-02-27T11:57:37.018Z,10.56
2024-02-27T11:58:36.970Z,10.55
2024-02-27T11:59:36.919Z,10.67
2024-02-27T12:00:36.944Z,10.67
2024-02-27T12:01:36.930Z,10.68
2024-02-27T12:02:36.910Z,10.66
2024-02-27T12:03:36.983Z,10.64
2024-02-27T12:04:36.954Z,10.82
2024-02-27T12:05:36.858Z,10.55
2024-02-27T12:06:36.845Z,10.61
2024-02-27T12:07:36.940Z,10.70
2024-02-27T12:08:36.860Z,10.64
2024-02-27T12:09:36.861Z,10.81
2024-02-27T12:10:36.846Z,10.88
2024-02-27T12:11:36.854Z,10.97
2024-02-27T12:12:37.120Z,10.91
2024-02-27T12:13:36.803Z,10.84
2024-02-27T12:14:36.770Z,10.91
2024-02-27T12:15:36.795Z,11.15
2024-02-27T12:16:36.806Z,11.19
2024-02-27T12:17:36.744Z,11.35
2024-02-27T12:18:36.945Z,11.44
2024-02-27T12:19:36.871Z,11.58
2024-02-27T12:20:36.699Z,11.67
2024-02-27T12:21:36.725Z,11.67
2024-02-27T12:22:36.719Z,11.62
2024-02-27T12:23:36.689Z,11.69
2024-02-27T12:24:36.701Z,11.72
2024-02-27T12:25:36.637Z,11.90
2024-02-27T12:26:36.648Z,11.96
2024-02-27T12:27:36.827Z,11.86
2024-02-27T12:28:36.656Z,11.69
2024-02-27T12:29:36.596Z,11.47
2024-02-27T12:30:36.622Z,11.46
2024-02-27T12:31:36.588Z,11.58
2024-02-27T12:32:36.644Z,11.54
2024-02-27T12:33:36.688Z,11.47
2024-02-27T12:34:36.636Z,11.44
2024-02-27T12:35:36.531Z,11.54
2024-02-27T12:36:36.671Z,11.58
2024-02-27T12:37:36.519Z,11.67
2024-02-27T12:38:36.498Z,11.40
2024-02-27T12:39:36.562Z,11.22
2024-02-27T12:40:36.506Z,11.25
2024-02-27T12:41:36.466Z,11.21
2024-02-27T12:42:36.531Z,11.27
2024-02-27T12:43:36.439Z,11.24
2024-02-27T12:44:36.449Z,11.25
2024-02-27T12:45:36.453Z,11.42
2024-02-27T12:46:36.438Z,11.39
2024-02-27T12:47:36.496Z,11.40
2024-02-27T12:48:36.516Z,11.42
2024-02-27T12:49:36.500Z,11.39
2024-02-27T12:50:36.371Z,11.43
2024-02-27T12:51:36.448Z,11.51
2024-02-27T12:52:36.359Z,11.54
2024-02-27T12:53:36.345Z,11.51
2024-02-27T12:54:36.392Z,11.55
2024-02-27T12:55:36.339Z,11.64
2024-02-27T12:56:36.299Z,11.55
2024-02-27T12:57:37.237Z,11.58
2024-02-27T12:58:36.313Z,11.36
2024-02-27T12:59:38.920Z,11.40
2024-02-27T13:00:36.369Z,11.44
2024-02-27T13:01:36.365Z,11.22
2024-02-27T13:02:36.255Z,11.11
2024-02-27T13:03:36.321Z,11.10
2024-02-27T13:04:36.292Z,11.06
2024-02-27T13:05:36.224Z,11.11
2024-02-27T13:06:36.294Z,10.96
2024-02-27T13:07:36.332Z,10.99
2024-02-27T13:08:36.193Z,11.02
2024-02-27T13:09:36.207Z,11.11
2024-02-27T13:10:36.157Z,11.09
2024-02-27T13:11:36.227Z,11.10